Skip to main content

NOAA/GLERL Met Station at Michigan City, IN

Previous 5 days (top of hour only)
See also Previous 3 Hours (2 minute increments)
Jump down to Data
Switch to [English][Metric]
Zoom: Click and drag, Pan: shift-click and drag, Unzoom: double-click, Unzoom All




Note: Speed = mean wind during 2-minute period at top of hour,
Gust = max wind during 2-minute period at top of hour,
Peak = max wind during entire hour.
• See also 5-day windrose plot


NOAA/GLERL Met Station at Michigan City, IN

Previous 5 days (top of hour only)
See also Previous 3 Hours (2 minute increments)
Jump up to Graphs
Switch to [English][Metric]
                  Wind  Wind  Wind   Air   Dew   Rel     Sta   PAR
                   Spd   Gst   Dir  Temp    Pt   Hum    Pres uE/m2/
YYYY-MM-DD   CST   m/s   m/s   deg     C     C     %      mb   sec
2018-02-24 13:00   6.3   7.8    94   5.3   1.8  78.0    0.00     0
2018-02-24 12:00   5.8   6.9    77   5.2   1.3  75.8    0.00     0
2018-02-24 11:00   4.4   6.6   103   4.0   0.5  77.6    0.00     0
2018-02-24 10:00   4.9   6.5   101   3.0  -0.4  78.1    0.00     0
2018-02-24 09:00   4.1   5.1    64   2.2  -0.9  79.7    0.00     0
2018-02-24 08:00   4.8   5.6    54   1.7  -1.4  79.8    0.00     0
2018-02-24 07:00   5.1   5.4    36   1.0   0.8  98.9    0.00     0
2018-02-24 06:00   6.1   6.6    41   0.8   1.0 101.8    0.00     0
2018-02-24 05:00   7.3   7.9    39   0.5   0.9 103.0    0.00     0
2018-02-24 04:00   3.8   3.9     7   0.6   1.2 104.7    0.00     0
2018-02-24 03:00   2.7   3.3    25   0.7   1.3 104.4    0.00     0
2018-02-24 02:00   4.4   4.9     8   0.9   0.4  96.2    0.00     0
2018-02-24 01:00   5.9   6.3     3   1.3   0.0  90.9    0.00     0
2018-02-24 00:00   3.4   3.6   340   1.8   0.0  87.7    0.00     0
2018-02-23 23:00   2.0   2.5   265   2.2   0.2  86.9    0.00     0
2018-02-23 22:00   2.9   3.0   236   2.1  -0.1  85.5    0.00     0
2018-02-23 21:00   2.2   2.6   228   1.7   1.9 101.3    0.00     0
2018-02-23 20:00   3.2   3.3   242   1.5   1.7 101.5    0.00     0
2018-02-23 19:00   5.3   5.4   256   1.8   1.9 100.8    0.00     0
2018-02-23 18:00   6.2   6.4   247   2.1   2.2 100.6    0.00     0
2018-02-23 17:00   5.9   6.2   244   2.2   2.4 101.3    0.00     0
2018-02-23 16:00   7.0   7.4   245   2.5   2.6 100.7    0.00     0
2018-02-23 15:00   7.6   8.0   242   3.0   3.0 100.0    0.00     0
2018-02-23 14:00   7.8   8.2   253   2.8   3.3 103.6    0.00     0
2018-02-23 13:00   7.6   7.8   243   3.3   3.5 101.3    0.00     0
2018-02-23 12:00   6.3   6.8   230   3.0   3.7 105.0    0.00     0
2018-02-23 11:00   9.6  10.0   233   4.4   5.1 105.3    0.00     0
2018-02-23 10:00   9.4  10.0   221   6.2   6.5 102.2    0.00     0
2018-02-23 09:00   6.5   8.0   176   6.0   6.4 103.1    0.00     0
2018-02-23 08:00   6.8   8.4   162   5.3   5.7 103.1    0.00     0
2018-02-23 07:00   6.5   7.7   145   4.9   5.5 104.0    0.00     0
2018-02-23 06:00   6.1   7.3   137   4.2   4.9 105.3    0.00     0
2018-02-23 05:00   6.8   8.1   130   3.6   4.1 103.5    0.00     0
2018-02-23 04:00   5.3   6.6   123   3.1   3.7 104.3    0.00     0
2018-02-23 03:00   6.9   8.9   118   2.8   3.4 104.0    0.00     0
2018-02-23 02:00   6.0   8.4   115   2.6   2.9 102.3    0.00     0
2018-02-23 01:00   4.4   5.5   115   2.8   3.0 101.7    0.00     0
2018-02-23 00:00   6.8   8.2   119   2.8   1.2  89.5    0.00     0
2018-02-22 23:00   4.7   6.1   112   3.2   1.0  85.2    0.00     0
2018-02-22 22:00   2.7   3.6    94   3.3   1.0  84.9    0.00     0
2018-02-22 21:00   6.2   7.6    93   3.5   0.8  82.2    0.00     0
2018-02-22 20:00   7.1  10.0    82   4.0   0.5  78.0    0.00     0
2018-02-22 19:00   4.5   6.1    82   4.7   0.5  74.0    0.00     0
2018-02-22 18:00   4.6   5.9    86   5.2   0.4  71.3    0.00     0
2018-02-22 17:00  10.0  13.5    78   5.8   0.5  68.7    0.00     0
2018-02-22 16:00   5.7   6.2    78   5.9   0.2  66.8    0.00     0
2018-02-22 15:00   8.0   9.3    91   5.5  -0.5  65.2    0.00     0
2018-02-22 14:00   6.0   8.5    89   5.1  -1.0  64.8    0.00     0
2018-02-22 13:00   6.6   8.2    68   4.8  -1.2  65.0    0.00     0
2018-02-22 12:00   8.1   8.7    24   1.7  -1.8  77.4    0.00     0
2018-02-22 11:00   6.3   8.1    70   2.7  -2.2  69.9    0.00     0
2018-02-22 10:00   4.5   5.6    89   1.4  -1.9  78.9    0.00     0
2018-02-22 09:00   5.5   5.8    43   0.2  -1.1  91.0    0.00     0
2018-02-22 08:00   7.5   8.0    40  -0.2  -1.8  88.7    0.00     0
2018-02-22 07:00   7.7   8.6    34  -0.3  -2.2  86.8    0.00     0
2018-02-22 06:00   8.6   9.2    28  -0.5  -2.3  87.7    0.00     0
2018-02-22 05:00   7.0   7.6    26  -0.7  -2.6  86.9    0.00     0
2018-02-22 04:00   9.6  10.6    42  -0.8  -3.1  84.4    0.00     0
2018-02-22 03:00   8.8   9.6    28  -0.9  -3.3  83.7    0.00     0
2018-02-22 02:00   8.4   9.3    31  -0.9  -3.4  83.1    0.00     0
2018-02-22 01:00  10.1  11.3    36  -0.9  -3.6  81.8    0.00     0
2018-02-22 00:00  10.9  11.6    28  -1.0  -3.0  86.3    0.00     0
2018-02-21 23:00  11.0  11.6    25  -1.1  -3.7  82.6    0.00     0
2018-02-21 22:00   8.9  10.0    27  -1.1  -4.0  80.9    0.00     0
2018-02-21 21:00   9.2   9.9    27  -1.1  -4.1  80.2    0.00     0
2018-02-21 20:00   9.4  10.1    17  -1.2  -4.6  77.6    0.00     0
2018-02-21 19:00   8.7   9.4    18  -1.4  -5.2  75.5    0.00     0
2018-02-21 18:00   9.1  10.2    10  -1.6  -5.4  75.1    0.00     0
2018-02-21 17:00   8.9   9.6    17  -1.7  -5.2  77.3    0.00     0
2018-02-21 16:00  10.3  10.9     9  -1.7  -5.1  77.4    0.00     0
2018-02-21 15:00   9.1  10.1    13  -1.5  -4.9  77.8    0.00     0
2018-02-21 14:00   9.5  10.3     4  -1.5  -5.0  77.0    0.00     0
2018-02-21 13:00   8.4  10.0     0  -1.3  -4.3  79.8    0.00     0
2018-02-21 12:00   9.7  10.4   341  -1.3  -4.3  80.3    0.00     0
2018-02-21 11:00   9.6  10.8   345  -1.2  -4.2  80.0    0.00     0
2018-02-21 10:00   8.9   9.5   343  -1.4  -4.3  80.5    0.00     0
2018-02-21 09:00   8.6   9.2   350  -1.4  -4.5  79.6    0.00     0
2018-02-21 08:00   9.0  10.1   345  -1.1  -4.0  80.5    0.00     0
2018-02-21 07:00   8.0   8.7   329  -1.2  -4.2  79.9    0.00     0
2018-02-21 06:00   7.4   8.0   326  -1.1  -3.8  81.9    0.00     0
2018-02-21 05:00   5.5   6.1   337  -0.4  -2.5  85.8    0.00     0
2018-02-21 04:00   4.5   5.0   332  -0.6  -0.3 102.3    0.00     0
2018-02-21 03:00   9.7  10.5   324  -0.4   0.3 105.0    0.00     0
2018-02-21 02:00  11.4  12.4   328   0.2   1.3 108.0    0.00     0
2018-02-21 01:00   8.7   9.6   313   0.2   1.3 107.9    0.00     0
2018-02-21 00:00   7.2   7.9   303   0.5   1.6 107.9    0.00     0
2018-02-20 23:00   5.8   6.2   298   1.0   2.0 107.7    0.00     0
2018-02-20 22:00   5.9   6.5   278   1.5   2.5 107.6    0.00     0
2018-02-20 21:00   1.3   1.9   294   1.8   2.8 107.6    0.00     0
2018-02-20 20:00   2.4   3.1   326   2.0   3.0 107.5    0.00     0
2018-02-20 19:00  12.9  13.6   265   8.2   9.2 107.0    0.00     0
2018-02-20 18:00   5.2   6.3   170  13.0  13.9 106.0    0.00     0
2018-02-20 17:00   5.1   6.3   171  13.3  14.4 107.5    0.00     0
2018-02-20 16:00   6.7   6.8   218  10.7  11.7 107.2    0.00     0
2018-02-20 15:00  22.9  32.9   214  14.8  15.4 104.3    0.00     0
2018-02-20 14:00  10.3  11.7   180  17.4  17.5 100.7    0.00     0
2018-02-20 13:00  11.1  12.8   179  16.9  16.2  95.8    0.00     0
2018-02-20 12:00  10.7  12.2   174  17.7  15.5  86.5    0.00     0
2018-02-20 11:00  11.8  13.6   180  17.4  15.0  85.4    0.00     0
2018-02-20 10:00  10.5  12.7   173  17.0  16.6  97.5    0.00     0
2018-02-20 09:00  12.8  15.8   190  16.3  16.2  99.2    0.00     0
2018-02-20 08:00  14.4  16.6   194  16.3  16.9 104.1    0.00     0
2018-02-20 07:00  11.8  13.8   187  15.8  16.1 101.8    0.00     0
2018-02-20 06:00  11.0  13.3   189  15.6  15.4  98.9    0.00     0
2018-02-20 05:00   8.0   9.4   195  15.6  15.7 100.4    0.00     0
2018-02-20 04:00   8.1  10.4   186  15.2  15.7 103.5    0.00     0
2018-02-20 03:00  10.9  13.6   184  15.8  15.7  99.3    0.00     0
2018-02-20 02:00   8.2   9.8   184  15.7  15.9 101.5    0.00     0
2018-02-20 01:00   5.4   6.1   177  15.0  16.0 106.7    0.00     0
2018-02-20 00:00   3.2   3.5   204  14.9  15.8 106.0    0.00     0
2018-02-19 23:00   7.5   9.1   191  15.3  15.9 103.9    0.00     0
2018-02-19 22:00   8.8  10.5   182  14.8  15.3 103.5    0.00     0
2018-02-19 21:00   7.4   8.6   174  14.7  14.8 100.8    0.00     0
2018-02-19 20:00   7.6  10.8   165  14.6  14.6 100.1    0.00     0
2018-02-19 19:00   9.1  10.4   171  14.2  14.4 101.5    0.00     0
2018-02-19 18:00  11.3  12.8   172  13.9  14.2 102.2    0.00     0